sensor_id;sensor_type;location;lat;lon;timestamp;pressure;altitude;pressure_sealevel;temperature;humidity
8320;BME280;4197;42.130;24.746;2023-02-13T00:01:13;101420.41;;;3.74;71.63
8320;BME280;4197;42.130;24.746;2023-02-13T00:03:43;101421.81;;;3.87;71.69
8320;BME280;4197;42.130;24.746;2023-02-13T00:06:11;101424.00;;;3.95;70.73
8320;BME280;4197;42.130;24.746;2023-02-13T00:08:39;101428.56;;;3.95;70.65
8320;BME280;4197;42.130;24.746;2023-02-13T00:11:07;101423.44;;;3.88;70.89
8320;BME280;4197;42.130;24.746;2023-02-13T00:13:36;101422.28;;;3.79;71.39
8320;BME280;4197;42.130;24.746;2023-02-13T00:16:05;101429.81;;;3.82;71.71
8320;BME280;4197;42.130;24.746;2023-02-13T00:18:36;101434.09;;;3.78;71.69
8320;BME280;4197;42.130;24.746;2023-02-13T00:21:08;101427.72;;;3.89;70.75
8320;BME280;4197;42.130;24.746;2023-02-13T00:23:37;101439.75;;;3.82;72.25
8320;BME280;4197;42.130;24.746;2023-02-13T00:26:07;101432.50;;;3.77;71.61
8320;BME280;4197;42.130;24.746;2023-02-13T00:28:36;101442.41;;;3.76;71.80
8320;BME280;4197;42.130;24.746;2023-02-13T00:31:07;101443.19;;;3.72;72.00
8320;BME280;4197;42.130;24.746;2023-02-13T00:33:36;101437.28;;;3.70;72.72
8320;BME280;4197;42.130;24.746;2023-02-13T00:36:08;101442.88;;;3.68;71.78
8320;BME280;4197;42.130;24.746;2023-02-13T00:38:38;101444.56;;;3.79;72.10
8320;BME280;4197;42.130;24.746;2023-02-13T00:41:07;101443.44;;;3.70;72.20
8320;BME280;4197;42.130;24.746;2023-02-13T00:43:36;101449.31;;;3.67;72.17
8320;BME280;4197;42.130;24.746;2023-02-13T00:46:05;101440.47;;;3.67;73.17
8320;BME280;4197;42.130;24.746;2023-02-13T00:48:33;101449.03;;;3.64;72.73
8320;BME280;4197;42.130;24.746;2023-02-13T00:51:03;101442.88;;;3.63;73.26
8320;BME280;4197;42.130;24.746;2023-02-13T00:53:33;101432.94;;;3.64;73.10
8320;BME280;4197;42.130;24.746;2023-02-13T00:56:03;101442.34;;;3.66;72.50
8320;BME280;4197;42.130;24.746;2023-02-13T00:58:31;101437.75;;;3.62;73.49
8320;BME280;4197;42.130;24.746;2023-02-13T01:01:00;101433.47;;;3.61;73.21
8320;BME280;4197;42.130;24.746;2023-02-13T01:03:28;101437.50;;;3.63;73.38
8320;BME280;4197;42.130;24.746;2023-02-13T01:05:56;101441.19;;;3.57;73.13
8320;BME280;4197;42.130;24.746;2023-02-13T01:08:24;101445.25;;;3.60;73.21
8320;BME280;4197;42.130;24.746;2023-02-13T01:10:55;101443.59;;;3.53;73.68
8320;BME280;4197;42.130;24.746;2023-02-13T01:13:25;101439.56;;;3.51;73.41
8320;BME280;4197;42.130;24.746;2023-02-13T01:15:53;101442.19;;;3.46;73.77
8320;BME280;4197;42.130;24.746;2023-02-13T01:18:21;101439.47;;;3.41;74.24
8320;BME280;4197;42.130;24.746;2023-02-13T01:20:57;101434.09;;;3.41;74.07
8320;BME280;4197;42.130;24.746;2023-02-13T01:23:36;101437.88;;;3.40;74.03
8320;BME280;4197;42.130;24.746;2023-02-13T01:26:08;101437.56;;;3.36;74.43
8320;BME280;4197;42.130;24.746;2023-02-13T01:28:38;101443.69;;;3.31;74.27
8320;BME280;4197;42.130;24.746;2023-02-13T01:31:06;101445.28;;;3.27;74.97
8320;BME280;4197;42.130;24.746;2023-02-13T01:33:34;101450.34;;;3.24;74.49
8320;BME280;4197;42.130;24.746;2023-02-13T01:36:06;101451.97;;;3.25;74.78
8320;BME280;4197;42.130;24.746;2023-02-13T01:38:34;101447.13;;;3.22;75.07
8320;BME280;4197;42.130;24.746;2023-02-13T01:41:02;101452.16;;;3.18;74.86
8320;BME280;4197;42.130;24.746;2023-02-13T01:43:48;101454.78;;;3.13;75.42
8320;BME280;4197;42.130;24.746;2023-02-13T01:46:21;101448.34;;;3.09;75.77
8320;BME280;4197;42.130;24.746;2023-02-13T01:48:55;101457.69;;;3.06;75.28
8320;BME280;4197;42.130;24.746;2023-02-13T01:51:28;101463.06;;;3.06;76.00
8320;BME280;4197;42.130;24.746;2023-02-13T01:54:00;101464.44;;;3.09;75.60
8320;BME280;4197;42.130;24.746;2023-02-13T01:56:34;101466.84;;;3.43;74.93
8320;BME280;4197;42.130;24.746;2023-02-13T01:59:08;101466.09;;;3.47;74.63
8320;BME280;4197;42.130;24.746;2023-02-13T02:01:38;101468.88;;;3.25;74.67
8320;BME280;4197;42.130;24.746;2023-02-13T02:04:10;101464.72;;;3.12;75.51
8320;BME280;4197;42.130;24.746;2023-02-13T02:06:42;101470.53;;;3.04;76.59
8320;BME280;4197;42.130;24.746;2023-02-13T02:09:13;101470.84;;;3.08;77.34
8320;BME280;4197;42.130;24.746;2023-02-13T02:11:49;101472.41;;;3.04;77.43
8320;BME280;4197;42.130;24.746;2023-02-13T02:14:21;101473.13;;;2.94;77.64
8320;BME280;4197;42.130;24.746;2023-02-13T02:16:49;101473.47;;;2.76;77.79
8320;BME280;4197;42.130;24.746;2023-02-13T02:19:25;101481.09;;;2.62;78.65
8320;BME280;4197;42.130;24.746;2023-02-13T02:28:31;101492.53;;;2.13;83.05
8320;BME280;4197;42.130;24.746;2023-02-13T02:34:15;101498.19;;;1.95;85.23
8320;BME280;4197;42.130;24.746;2023-02-13T02:37:03;101502.91;;;2.10;84.71
8320;BME280;4197;42.130;24.746;2023-02-13T02:39:41;101507.81;;;1.96;85.54
8320;BME280;4197;42.130;24.746;2023-02-13T02:42:22;101509.38;;;1.92;85.78
8320;BME280;4197;42.130;24.746;2023-02-13T02:45:02;101515.28;;;1.77;86.94
8320;BME280;4197;42.130;24.746;2023-02-13T02:47:39;101522.66;;;1.87;87.34
8320;BME280;4197;42.130;24.746;2023-02-13T02:50:33;101519.50;;;1.73;87.58
8320;BME280;4197;42.130;24.746;2023-02-13T02:53:07;101510.13;;;1.53;88.53
8320;BME280;4197;42.130;24.746;2023-02-13T02:55:42;101521.22;;;1.45;90.03
8320;BME280;4197;42.130;24.746;2023-02-13T02:58:19;101525.56;;;1.34;90.30
8320;BME280;4197;42.130;24.746;2023-02-13T03:01:10;101516.34;;;1.25;90.98
8320;BME280;4197;42.130;24.746;2023-02-13T03:03:58;101526.94;;;1.20;92.13
8320;BME280;4197;42.130;24.746;2023-02-13T03:06:49;101527.63;;;1.16;93.19
8320;BME280;4197;42.130;24.746;2023-02-13T03:09:22;101528.59;;;1.09;92.97
8320;BME280;4197;42.130;24.746;2023-02-13T03:12:11;101520.50;;;1.04;93.70
8320;BME280;4197;42.130;24.746;2023-02-13T03:14:59;101528.66;;;0.98;94.47
8320;BME280;4197;42.130;24.746;2023-02-13T03:17:28;101527.50;;;0.94;94.73
8320;BME280;4197;42.130;24.746;2023-02-13T03:20:22;101532.50;;;0.90;93.98
8320;BME280;4197;42.130;24.746;2023-02-13T03:23:28;101530.31;;;0.87;95.05
8320;BME280;4197;42.130;24.746;2023-02-13T03:26:11;101527.66;;;0.87;94.88
8320;BME280;4197;42.130;24.746;2023-02-13T03:28:51;101525.47;;;0.84;96.08
8320;BME280;4197;42.130;24.746;2023-02-13T03:31:48;101540.91;;;0.82;96.00
8320;BME280;4197;42.130;24.746;2023-02-13T03:34:29;101534.16;;;0.79;95.65
8320;BME280;4197;42.130;24.746;2023-02-13T03:37:23;101534.22;;;0.68;95.85
8320;BME280;4197;42.130;24.746;2023-02-13T03:40:21;101538.16;;;0.65;96.06
8320;BME280;4197;42.130;24.746;2023-02-13T03:42:54;101540.16;;;0.58;96.80
8320;BME280;4197;42.130;24.746;2023-02-13T03:45:27;101545.03;;;0.49;97.61
8320;BME280;4197;42.130;24.746;2023-02-13T03:48:18;101539.03;;;0.42;97.49
8320;BME280;4197;42.130;24.746;2023-02-13T03:51:12;101534.97;;;0.39;98.30
8320;BME280;4197;42.130;24.746;2023-02-13T03:53:44;101533.47;;;0.32;98.57
8320;BME280;4197;42.130;24.746;2023-02-13T03:56:17;101533.22;;;0.33;99.57
8320;BME280;4197;42.130;24.746;2023-02-13T03:59:08;101536.50;;;0.24;100.00
8320;BME280;4197;42.130;24.746;2023-02-13T04:01:53;101533.38;;;0.15;100.00
8320;BME280;4197;42.130;24.746;2023-02-13T04:04:27;101539.66;;;0.09;100.00
8320;BME280;4197;42.130;24.746;2023-02-13T04:07:01;101532.34;;;0.04;100.00
8320;BME280;4197;42.130;24.746;2023-02-13T04:09:33;101541.84;;;0.00;100.00
8320;BME280;4197;42.130;24.746;2023-02-13T04:12:11;101535.00;;;-0.08;100.00
8320;BME280;4197;42.130;24.746;2023-02-13T04:14:48;101539.53;;;-0.08;100.00
8320;BME280;4197;42.130;24.746;2023-02-13T04:17:21;101541.16;;;-0.07;100.00
8320;BME280;4197;42.130;24.746;2023-02-13T04:19:51;101536.88;;;-0.08;100.00
8320;BME280;4197;42.130;24.746;2023-02-13T04:22:19;101534.78;;;0.06;100.00
8320;BME280;4197;42.130;24.746;2023-02-13T04:24:48;101534.63;;;0.24;100.00
8320;BME280;4197;42.130;24.746;2023-02-13T04:27:17;101539.28;;;0.05;100.00
8320;BME280;4197;42.130;24.746;2023-02-13T04:29:45;101540.91;;;-0.06;100.00
8320;BME280;4197;42.130;24.746;2023-02-13T04:32:14;101535.69;;;-0.12;100.00
8320;BME280;4197;42.130;24.746;2023-02-13T04:34:43;101529.75;;;-0.14;100.00
8320;BME280;4197;42.130;24.746;2023-02-13T04:37:11;101532.56;;;-0.09;100.00
8320;BME280;4197;42.130;24.746;2023-02-13T04:39:39;101538.81;;;-0.15;100.00
8320;BME280;4197;42.130;24.746;2023-02-13T04:42:07;101533.59;;;-0.22;100.00
8320;BME280;4197;42.130;24.746;2023-02-13T04:44:37;101533.94;;;-0.30;100.00
8320;BME280;4197;42.130;24.746;2023-02-13T04:47:05;101536.25;;;-0.34;100.00
8320;BME280;4197;42.130;24.746;2023-02-13T04:49:33;101548.75;;;-0.34;100.00
8320;BME280;4197;42.130;24.746;2023-02-13T04:52:02;101547.75;;;-0.33;100.00
8320;BME280;4197;42.130;24.746;2023-02-13T04:54:30;101553.06;;;-0.33;100.00
8320;BME280;4197;42.130;24.746;2023-02-13T04:56:58;101547.63;;;-0.27;100.00
8320;BME280;4197;42.130;24.746;2023-02-13T04:59:26;101541.22;;;-0.37;100.00
8320;BME280;4197;42.130;24.746;2023-02-13T05:01:56;101547.59;;;-0.38;100.00
8320;BME280;4197;42.130;24.746;2023-02-13T05:04:24;101555.00;;;-0.40;100.00
8320;BME280;4197;42.130;24.746;2023-02-13T05:06:54;101539.25;;;-0.42;100.00
8320;BME280;4197;42.130;24.746;2023-02-13T05:09:22;101542.94;;;-0.43;100.00
8320;BME280;4197;42.130;24.746;2023-02-13T05:11:51;101551.53;;;-0.41;100.00
8320;BME280;4197;42.130;24.746;2023-02-13T05:14:23;101555.34;;;-0.37;100.00
8320;BME280;4197;42.130;24.746;2023-02-13T05:16:51;101559.53;;;-0.41;100.00
8320;BME280;4197;42.130;24.746;2023-02-13T05:19:20;101557.44;;;-0.39;100.00
8320;BME280;4197;42.130;24.746;2023-02-13T05:21:49;101562.06;;;-0.46;100.00
8320;BME280;4197;42.130;24.746;2023-02-13T05:24:34;101569.59;;;-0.55;100.00
8320;BME280;4197;42.130;24.746;2023-02-13T05:27:02;101573.38;;;-0.62;100.00
8320;BME280;4197;42.130;24.746;2023-02-13T05:29:31;101572.44;;;-0.68;100.00
8320;BME280;4197;42.130;24.746;2023-02-13T05:31:59;101575.25;;;-0.63;100.00
8320;BME280;4197;42.130;24.746;2023-02-13T05:34:29;101574.19;;;-0.62;100.00
8320;BME280;4197;42.130;24.746;2023-02-13T05:36:57;101594.47;;;-0.61;100.00
8320;BME280;4197;42.130;24.746;2023-02-13T05:39:26;101594.47;;;-0.61;100.00
8320;BME280;4197;42.130;24.746;2023-02-13T05:41:54;101603.03;;;-0.59;100.00
8320;BME280;4197;42.130;24.746;2023-02-13T05:44:22;101606.75;;;-0.60;100.00
8320;BME280;4197;42.130;24.746;2023-02-13T05:46:50;101608.38;;;-0.59;100.00
8320;BME280;4197;42.130;24.746;2023-02-13T05:49:19;101610.03;;;-0.58;100.00
8320;BME280;4197;42.130;24.746;2023-02-13T05:51:49;101605.50;;;-0.57;100.00
8320;BME280;4197;42.130;24.746;2023-02-13T05:54:18;101605.50;;;-0.57;100.00
8320;BME280;4197;42.130;24.746;2023-02-13T05:56:47;101607.91;;;-0.56;100.00
8320;BME280;4197;42.130;24.746;2023-02-13T05:59:15;101616.97;;;-0.57;100.00
8320;BME280;4197;42.130;24.746;2023-02-13T06:01:43;101604.91;;;-0.59;100.00
8320;BME280;4197;42.130;24.746;2023-02-13T06:04:14;101614.09;;;-0.55;100.00
8320;BME280;4197;42.130;24.746;2023-02-13T06:06:42;101617.00;;;-0.45;100.00
8320;BME280;4197;42.130;24.746;2023-02-13T06:09:13;101616.06;;;-0.39;100.00
8320;BME280;4197;42.130;24.746;2023-02-13T06:11:41;101616.22;;;-0.34;100.00
8320;BME280;4197;42.130;24.746;2023-02-13T06:14:10;101613.34;;;-0.32;100.00
8320;BME280;4197;42.130;24.746;2023-02-13T06:16:39;101615.53;;;-0.29;100.00
8320;BME280;4197;42.130;24.746;2023-02-13T06:19:08;101618.34;;;-0.12;100.00
8320;BME280;4197;42.130;24.746;2023-02-13T06:21:36;101608.47;;;-0.24;100.00
8320;BME280;4197;42.130;24.746;2023-02-13T06:24:05;101621.69;;;-0.17;100.00
8320;BME280;4197;42.130;24.746;2023-02-13T06:26:36;101620.53;;;-0.21;100.00
8320;BME280;4197;42.130;24.746;2023-02-13T06:29:04;101626.59;;;-0.14;100.00
8320;BME280;4197;42.130;24.746;2023-02-13T06:31:32;101627.75;;;-0.10;100.00
8320;BME280;4197;42.130;24.746;2023-02-13T06:34:00;101622.06;;;-0.13;100.00
8320;BME280;4197;42.130;24.746;2023-02-13T06:36:29;101621.38;;;-0.09;100.00
8320;BME280;4197;42.130;24.746;2023-02-13T06:38:58;101613.75;;;0.07;100.00
8320;BME280;4197;42.130;24.746;2023-02-13T06:41:26;101622.09;;;0.10;100.00
8320;BME280;4197;42.130;24.746;2023-02-13T06:43:56;101612.81;;;0.13;100.00
8320;BME280;4197;42.130;24.746;2023-02-13T06:46:24;101619.44;;;0.22;100.00
8320;BME280;4197;42.130;24.746;2023-02-13T06:48:52;101617.13;;;0.26;100.00
8320;BME280;4197;42.130;24.746;2023-02-13T06:51:20;101618.16;;;0.25;100.00
8320;BME280;4197;42.130;24.746;2023-02-13T06:53:48;101616.31;;;0.25;100.00
8320;BME280;4197;42.130;24.746;2023-02-13T06:56:16;101609.94;;;0.26;100.00
8320;BME280;4197;42.130;24.746;2023-02-13T06:58:45;101613.75;;;0.30;100.00
8320;BME280;4197;42.130;24.746;2023-02-13T07:01:14;101619.31;;;0.40;100.00
8320;BME280;4197;42.130;24.746;2023-02-13T07:03:43;101624.31;;;0.49;100.00
8320;BME280;4197;42.130;24.746;2023-02-13T07:06:16;101615.81;;;0.63;100.00
8320;BME280;4197;42.130;24.746;2023-02-13T07:08:44;101612.94;;;0.65;100.00
8320;BME280;4197;42.130;24.746;2023-02-13T07:11:17;101608.19;;;0.67;100.00
8320;BME280;4197;42.130;24.746;2023-02-13T07:13:47;101604.78;;;0.72;100.00
8320;BME280;4197;42.130;24.746;2023-02-13T07:16:16;101605.81;;;0.82;100.00
8320;BME280;4197;42.130;24.746;2023-02-13T07:18:45;101607.09;;;0.92;98.62
8320;BME280;4197;42.130;24.746;2023-02-13T07:21:14;101612.13;;;1.17;97.10
8320;BME280;4197;42.130;24.746;2023-02-13T07:23:42;101613.25;;;1.21;95.63
8320;BME280;4197;42.130;24.746;2023-02-13T07:26:10;101610.09;;;1.24;95.54
8320;BME280;4197;42.130;24.746;2023-02-13T07:28:38;101609.63;;;1.27;96.06
8320;BME280;4197;42.130;24.746;2023-02-13T07:31:06;101613.47;;;1.31;95.85
8320;BME280;4197;42.130;24.746;2023-02-13T07:33:36;101617.94;;;1.42;95.01
8320;BME280;4197;42.130;24.746;2023-02-13T07:36:06;101625.22;;;1.47;94.67
8320;BME280;4197;42.130;24.746;2023-02-13T07:38:35;101613.75;;;1.63;92.62
8320;BME280;4197;42.130;24.746;2023-02-13T07:41:03;101611.44;;;1.67;92.36
8320;BME280;4197;42.130;24.746;2023-02-13T07:43:31;101611.97;;;1.69;91.75
8320;BME280;4197;42.130;24.746;2023-02-13T07:46:01;101610.88;;;1.82;90.04
8320;BME280;4197;42.130;24.746;2023-02-13T07:48:29;101602.94;;;1.87;89.49
8320;BME280;4197;42.130;24.746;2023-02-13T07:51:01;101609.75;;;1.94;88.88
8320;BME280;4197;42.130;24.746;2023-02-13T07:53:29;101611.44;;;2.00;87.97
8320;BME280;4197;42.130;24.746;2023-02-13T07:55:58;101614.03;;;2.12;87.11
8320;BME280;4197;42.130;24.746;2023-02-13T07:58:26;101617.50;;;2.13;86.84
8320;BME280;4197;42.130;24.746;2023-02-13T08:00:55;101610.06;;;2.15;86.42
8320;BME280;4197;42.130;24.746;2023-02-13T08:03:23;101598.84;;;2.18;86.22
8320;BME280;4197;42.130;24.746;2023-02-13T08:05:51;101604.38;;;2.28;86.55
8320;BME280;4197;42.130;24.746;2023-02-13T08:08:21;101603.06;;;2.31;86.73
8320;BME280;4197;42.130;24.746;2023-02-13T08:10:49;101601.66;;;2.45;85.94
8320;BME280;4197;42.130;24.746;2023-02-13T08:13:35;101602.53;;;2.51;85.80
8320;BME280;4197;42.130;24.746;2023-02-13T08:16:04;101609.59;;;2.79;84.11
8320;BME280;4197;42.130;24.746;2023-02-13T08:18:33;101608.44;;;2.92;82.65
8320;BME280;4197;42.130;24.746;2023-02-13T08:21:01;101604.81;;;3.03;81.52
8320;BME280;4197;42.130;24.746;2023-02-13T08:23:31;101601.56;;;3.01;81.23
8320;BME280;4197;42.130;24.746;2023-02-13T08:26:00;101602.38;;;3.01;80.58
8320;BME280;4197;42.130;24.746;2023-02-13T08:28:29;101596.41;;;3.16;80.57
8320;BME280;4197;42.130;24.746;2023-02-13T08:30:57;101591.75;;;3.33;79.43
8320;BME280;4197;42.130;24.746;2023-02-13T08:33:26;101595.63;;;3.48;79.11
8320;BME280;4197;42.130;24.746;2023-02-13T08:35:54;101596.56;;;3.58;77.89
8320;BME280;4197;42.130;24.746;2023-02-13T08:38:23;101585.31;;;3.62;78.03
8320;BME280;4197;42.130;24.746;2023-02-13T08:40:55;101589.94;;;3.71;76.83
8320;BME280;4197;42.130;24.746;2023-02-13T08:43:24;101588.28;;;3.65;76.98
8320;BME280;4197;42.130;24.746;2023-02-13T08:45:52;101592.38;;;3.73;76.87
8320;BME280;4197;42.130;24.746;2023-02-13T08:48:21;101593.75;;;3.75;77.11
8320;BME280;4197;42.130;24.746;2023-02-13T08:50:50;101583.63;;;3.83;76.48
8320;BME280;4197;42.130;24.746;2023-02-13T08:53:18;101582.63;;;3.94;76.65
8320;BME280;4197;42.130;24.746;2023-02-13T08:55:53;101587.25;;;4.03;75.35
8320;BME280;4197;42.130;24.746;2023-02-13T08:58:23;101584.63;;;4.09;75.25
8320;BME280;4197;42.130;24.746;2023-02-13T09:00:53;101578.00;;;4.27;73.98
8320;BME280;4197;42.130;24.746;2023-02-13T09:03:21;101579.41;;;4.34;73.89
8320;BME280;4197;42.130;24.746;2023-02-13T09:05:49;101575.38;;;4.37;73.45
8320;BME280;4197;42.130;24.746;2023-02-13T09:08:18;101578.91;;;4.42;73.00
8320;BME280;4197;42.130;24.746;2023-02-13T09:10:46;101577.59;;;4.45;72.49
8320;BME280;4197;42.130;24.746;2023-02-13T09:15:51;101572.03;;;4.62;71.55
8320;BME280;4197;42.130;24.746;2023-02-13T09:18:19;101573.16;;;4.76;70.70
8320;BME280;4197;42.130;24.746;2023-02-13T09:20:48;101568.28;;;4.68;71.89
8320;BME280;4197;42.130;24.746;2023-02-13T09:23:16;101561.59;;;4.76;71.23
8320;BME280;4197;42.130;24.746;2023-02-13T09:25:44;101556.00;;;4.92;69.99
8320;BME280;4197;42.130;24.746;2023-02-13T09:28:12;101557.94;;;5.02;69.98
8320;BME280;4197;42.130;24.746;2023-02-13T09:30:42;101552.25;;;4.99;69.51
8320;BME280;4197;42.130;24.746;2023-02-13T09:33:10;101537.50;;;5.01;70.05
8320;BME280;4197;42.130;24.746;2023-02-13T09:35:39;101543.69;;;5.07;69.63
8320;BME280;4197;42.130;24.746;2023-02-13T09:38:09;101537.81;;;5.25;68.13
8320;BME280;4197;42.130;24.746;2023-02-13T09:40:44;101536.75;;;5.36;66.85
8320;BME280;4197;42.130;24.746;2023-02-13T09:43:20;101529.75;;;5.35;67.39
8320;BME280;4197;42.130;24.746;2023-02-13T09:45:53;101524.94;;;5.58;65.97
8320;BME280;4197;42.130;24.746;2023-02-13T09:48:27;101519.53;;;5.58;65.87
8320;BME280;4197;42.130;24.746;2023-02-13T09:50:57;101520.34;;;5.69;64.92
8320;BME280;4197;42.130;24.746;2023-02-13T09:53:27;101513.88;;;5.65;65.10
8320;BME280;4197;42.130;24.746;2023-02-13T09:56:08;101507.16;;;5.67;66.28
8320;BME280;4197;42.130;24.746;2023-02-13T09:58:42;101508.25;;;5.76;66.29
8320;BME280;4197;42.130;24.746;2023-02-13T10:01:27;101502.84;;;6.02;65.37
8320;BME280;4197;42.130;24.746;2023-02-13T10:04:26;101502.78;;;6.12;63.64
8320;BME280;4197;42.130;24.746;2023-02-13T10:07:09;101492.84;;;6.13;63.78
8320;BME280;4197;42.130;24.746;2023-02-13T10:09:50;101486.38;;;6.14;63.14
8320;BME280;4197;42.130;24.746;2023-02-13T10:15:27;101482.78;;;6.39;61.82
8320;BME280;4197;42.130;24.746;2023-02-13T10:18:02;101484.38;;;6.45;60.85
8320;BME280;4197;42.130;24.746;2023-02-13T10:20:36;101474.16;;;6.42;61.48
8320;BME280;4197;42.130;24.746;2023-02-13T10:23:16;101465.47;;;6.55;60.57
8320;BME280;4197;42.130;24.746;2023-02-13T10:25:51;101462.22;;;6.58;60.22
8320;BME280;4197;42.130;24.746;2023-02-13T10:28:33;101452.22;;;6.59;60.26
8320;BME280;4197;42.130;24.746;2023-02-13T10:31:08;101451.88;;;6.70;59.64
8320;BME280;4197;42.130;24.746;2023-02-13T10:33:48;101441.91;;;6.76;59.38
8320;BME280;4197;42.130;24.746;2023-02-13T10:36:20;101430.03;;;6.77;59.59
8320;BME280;4197;42.130;24.746;2023-02-13T10:38:55;101430.25;;;6.86;59.30
8320;BME280;4197;42.130;24.746;2023-02-13T10:41:34;101424.31;;;6.84;59.65
8320;BME280;4197;42.130;24.746;2023-02-13T10:44:25;101410.25;;;6.87;59.69
8320;BME280;4197;42.130;24.746;2023-02-13T10:47:04;101411.72;;;7.08;58.43
8320;BME280;4197;42.130;24.746;2023-02-13T10:49:55;101412.22;;;7.15;56.90
8320;BME280;4197;42.130;24.746;2023-02-13T10:52:37;101401.69;;;7.14;57.46
8320;BME280;4197;42.130;24.746;2023-02-13T10:58:10;101390.38;;;7.12;57.48
8320;BME280;4197;42.130;24.746;2023-02-13T11:00:45;101389.88;;;7.39;55.52
8320;BME280;4197;42.130;24.746;2023-02-13T11:03:18;101389.88;;;7.39;54.56
8320;BME280;4197;42.130;24.746;2023-02-13T11:05:50;101388.69;;;7.50;53.29
8320;BME280;4197;42.130;24.746;2023-02-13T11:08:22;101381.06;;;7.57;52.65
8320;BME280;4197;42.130;24.746;2023-02-13T11:10:51;101371.09;;;7.53;53.10
8320;BME280;4197;42.130;24.746;2023-02-13T11:13:22;101373.09;;;7.71;52.50
8320;BME280;4197;42.130;24.746;2023-02-13T11:16:02;101362.06;;;7.68;52.50
8320;BME280;4197;42.130;24.746;2023-02-13T11:18:33;101354.63;;;7.78;51.78
8320;BME280;4197;42.130;24.746;2023-02-13T11:21:07;101349.34;;;7.68;52.53
8320;BME280;4197;42.130;24.746;2023-02-13T11:23:43;101345.19;;;7.76;52.35
8320;BME280;4197;42.130;24.746;2023-02-13T11:26:20;101347.09;;;7.75;51.98
8320;BME280;4197;42.130;24.746;2023-02-13T11:28:52;101328.72;;;7.77;51.94
8320;BME280;4197;42.130;24.746;2023-02-13T11:31:26;101337.38;;;7.98;52.10
8320;BME280;4197;42.130;24.746;2023-02-13T11:33:56;101322.78;;;7.99;51.66
8320;BME280;4197;42.130;24.746;2023-02-13T11:36:28;101322.19;;;8.21;50.88
8320;BME280;4197;42.130;24.746;2023-02-13T11:38:59;101316.34;;;8.33;49.50
8320;BME280;4197;42.130;24.746;2023-02-13T11:41:29;101307.72;;;8.31;48.38
8320;BME280;4197;42.130;24.746;2023-02-13T11:44:00;101306.25;;;8.20;49.08
8320;BME280;4197;42.130;24.746;2023-02-13T11:46:42;101304.53;;;8.29;47.64
8320;BME280;4197;42.130;24.746;2023-02-13T11:49:20;101299.34;;;8.14;47.34
8320;BME280;4197;42.130;24.746;2023-02-13T11:51:51;101293.34;;;8.17;47.33
8320;BME280;4197;42.130;24.746;2023-02-13T11:54:23;101282.66;;;8.25;48.44
8320;BME280;4197;42.130;24.746;2023-02-13T11:56:54;101286.63;;;8.33;48.18
8320;BME280;4197;42.130;24.746;2023-02-13T11:59:39;101278.44;;;8.38;48.03
8320;BME280;4197;42.130;24.746;2023-02-13T12:02:16;101279.25;;;8.39;48.05
8320;BME280;4197;42.130;24.746;2023-02-13T12:04:47;101265.94;;;8.42;47.96
8320;BME280;4197;42.130;24.746;2023-02-13T12:07:23;101267.41;;;8.54;47.64
8320;BME280;4197;42.130;24.746;2023-02-13T12:09:59;101272.84;;;8.54;47.55
8320;BME280;4197;42.130;24.746;2023-02-13T12:12:34;101266.44;;;8.63;46.65
8320;BME280;4197;42.130;24.746;2023-02-13T12:15:15;101262.13;;;8.62;45.80
8320;BME280;4197;42.130;24.746;2023-02-13T12:17:49;101245.84;;;8.67;44.97
8320;BME280;4197;42.130;24.746;2023-02-13T12:20:20;101241.97;;;8.87;43.62
8320;BME280;4197;42.130;24.746;2023-02-13T12:23:00;101238.81;;;8.80;43.84
8320;BME280;4197;42.130;24.746;2023-02-13T12:25:44;101241.63;;;8.75;44.05
8320;BME280;4197;42.130;24.746;2023-02-13T12:28:17;101243.00;;;8.73;44.56
8320;BME280;4197;42.130;24.746;2023-02-13T12:31:26;101246.22;;;8.75;44.54
8320;BME280;4197;42.130;24.746;2023-02-13T12:34:31;101242.03;;;8.82;44.14
8320;BME280;4197;42.130;24.746;2023-02-13T12:37:22;101242.88;;;8.97;43.55
8320;BME280;4197;42.130;24.746;2023-02-13T12:40:14;101236.72;;;8.77;43.12
8320;BME280;4197;42.130;24.746;2023-02-13T12:43:09;101240.06;;;8.88;42.79
8320;BME280;4197;42.130;24.746;2023-02-13T12:45:46;101231.03;;;8.79;43.27
8320;BME280;4197;42.130;24.746;2023-02-13T12:48:30;101229.41;;;8.91;43.09
8320;BME280;4197;42.130;24.746;2023-02-13T12:51:11;101233.84;;;8.87;41.94
8320;BME280;4197;42.130;24.746;2023-02-13T12:54:07;101227.81;;;8.77;42.26
8320;BME280;4197;42.130;24.746;2023-02-13T12:56:54;101214.69;;;8.84;42.06
8320;BME280;4197;42.130;24.746;2023-02-13T12:59:36;101216.22;;;9.04;41.66
8320;BME280;4197;42.130;24.746;2023-02-13T13:02:32;101224.22;;;9.23;40.18
8320;BME280;4197;42.130;24.746;2023-02-13T13:05:19;101215.22;;;9.13;40.58
8320;BME280;4197;42.130;24.746;2023-02-13T13:08:06;101218.31;;;9.07;40.99
8320;BME280;4197;42.130;24.746;2023-02-13T13:11:03;101212.13;;;9.06;40.91
8320;BME280;4197;42.130;24.746;2023-02-13T13:13:46;101207.97;;;8.95;40.78
8320;BME280;4197;42.130;24.746;2023-02-13T13:16:22;101204.00;;;8.92;41.35
8320;BME280;4197;42.130;24.746;2023-02-13T13:19:01;101206.19;;;9.04;41.35
8320;BME280;4197;42.130;24.746;2023-02-13T13:21:42;101203.06;;;9.11;39.99
8320;BME280;4197;42.130;24.746;2023-02-13T13:24:24;101201.38;;;9.01;40.85
8320;BME280;4197;42.130;24.746;2023-02-13T13:26:56;101197.75;;;9.06;40.73
8320;BME280;4197;42.130;24.746;2023-02-13T13:29:36;101192.16;;;9.02;40.57
8320;BME280;4197;42.130;24.746;2023-02-13T13:32:16;101191.16;;;8.98;40.09
8320;BME280;4197;42.130;24.746;2023-02-13T13:34:45;101187.34;;;8.99;40.46
8320;BME280;4197;42.130;24.746;2023-02-13T13:37:22;101185.25;;;9.10;40.41
8320;BME280;4197;42.130;24.746;2023-02-13T13:40:00;101187.34;;;9.27;40.39
8320;BME280;4197;42.130;24.746;2023-02-13T13:42:37;101177.94;;;9.10;40.78
8320;BME280;4197;42.130;24.746;2023-02-13T13:45:23;101174.09;;;9.25;40.29
8320;BME280;4197;42.130;24.746;2023-02-13T13:48:15;101179.19;;;9.41;39.80
8320;BME280;4197;42.130;24.746;2023-02-13T13:50:47;101172.00;;;9.22;39.98
8320;BME280;4197;42.130;24.746;2023-02-13T13:53:21;101173.88;;;9.35;39.71
8320;BME280;4197;42.130;24.746;2023-02-13T13:56:00;101169.00;;;9.24;39.94
8320;BME280;4197;42.130;24.746;2023-02-13T13:58:34;101174.09;;;9.11;40.39
8320;BME280;4197;42.130;24.746;2023-02-13T14:01:29;101165.88;;;9.30;39.93